sensor_id;sensor_type;location;lat;lon;timestamp;P1;durP1;ratioP1;P2;durP2;ratioP2
70547;SDS011;58099;43.406;3.698;2022-11-20T00:01:15;4.87;;;0.60;;
70547;SDS011;58099;43.406;3.698;2022-11-20T00:03:45;4.07;;;0.50;;
70547;SDS011;58099;43.406;3.698;2022-11-20T00:06:13;3.78;;;0.43;;
70547;SDS011;58099;43.406;3.698;2022-11-20T00:08:43;3.45;;;0.50;;
70547;SDS011;58099;43.406;3.698;2022-11-20T00:11:13;4.25;;;0.50;;
70547;SDS011;58099;43.406;3.698;2022-11-20T00:13:40;5.47;;;0.50;;
70547;SDS011;58099;43.406;3.698;2022-11-20T00:16:06;4.10;;;0.50;;
70547;SDS011;58099;43.406;3.698;2022-11-20T00:18:34;4.13;;;0.40;;
70547;SDS011;58099;43.406;3.698;2022-11-20T00:21:04;4.10;;;0.50;;
70547;SDS011;58099;43.406;3.698;2022-11-20T00:23:31;3.70;;;0.47;;
70547;SDS011;58099;43.406;3.698;2022-11-20T00:26:00;3.80;;;0.52;;
70547;SDS011;58099;43.406;3.698;2022-11-20T00:28:30;3.67;;;0.45;;
70547;SDS011;58099;43.406;3.698;2022-11-20T00:31:03;3.85;;;0.30;;
70547;SDS011;58099;43.406;3.698;2022-11-20T00:33:30;4.60;;;0.43;;
70547;SDS011;58099;43.406;3.698;2022-11-20T00:36:02;5.37;;;0.50;;
70547;SDS011;58099;43.406;3.698;2022-11-20T00:38:30;4.03;;;0.40;;
70547;SDS011;58099;43.406;3.698;2022-11-20T00:41:00;4.63;;;0.50;;
70547;SDS011;58099;43.406;3.698;2022-11-20T00:43:26;3.53;;;0.30;;
70547;SDS011;58099;43.406;3.698;2022-11-20T00:45:56;3.63;;;0.40;;
70547;SDS011;58099;43.406;3.698;2022-11-20T00:48:23;2.87;;;0.40;;
70547;SDS011;58099;43.406;3.698;2022-11-20T00:50:48;6.45;;;0.65;;
70547;SDS011;58099;43.406;3.698;2022-11-20T00:53:14;3.23;;;0.30;;
70547;SDS011;58099;43.406;3.698;2022-11-20T00:55:40;3.83;;;0.32;;
70547;SDS011;58099;43.406;3.698;2022-11-20T00:58:06;3.40;;;0.40;;
70547;SDS011;58099;43.406;3.698;2022-11-20T01:00:31;2.90;;;0.50;;
70547;SDS011;58099;43.406;3.698;2022-11-20T01:02:57;3.70;;;0.40;;
70547;SDS011;58099;43.406;3.698;2022-11-20T01:05:23;3.13;;;0.43;;
70547;SDS011;58099;43.406;3.698;2022-11-20T01:07:48;3.43;;;0.50;;
70547;SDS011;58099;43.406;3.698;2022-11-20T01:10:14;3.67;;;0.45;;
70547;SDS011;58099;43.406;3.698;2022-11-20T01:12:40;2.70;;;0.40;;
70547;SDS011;58099;43.406;3.698;2022-11-20T01:15:06;3.95;;;0.30;;
70547;SDS011;58099;43.406;3.698;2022-11-20T01:17:33;4.88;;;0.75;;
70547;SDS011;58099;43.406;3.698;2022-11-20T01:19:58;4.17;;;0.60;;
70547;SDS011;58099;43.406;3.698;2022-11-20T01:22:24;3.05;;;0.43;;
70547;SDS011;58099;43.406;3.698;2022-11-20T01:24:50;4.77;;;0.53;;
70547;SDS011;58099;43.406;3.698;2022-11-20T05:12:40;4.18;;;0.40;;
70547;SDS011;58099;43.406;3.698;2022-11-20T05:15:06;3.40;;;0.40;;
70547;SDS011;58099;43.406;3.698;2022-11-20T05:17:32;3.30;;;0.40;;
70547;SDS011;58099;43.406;3.698;2022-11-20T05:19:58;3.53;;;0.40;;
70547;SDS011;58099;43.406;3.698;2022-11-20T05:22:23;4.80;;;0.37;;
70547;SDS011;58099;43.406;3.698;2022-11-20T05:24:49;3.50;;;0.40;;
70547;SDS011;58099;43.406;3.698;2022-11-20T05:27:15;4.00;;;0.40;;
70547;SDS011;58099;43.406;3.698;2022-11-20T05:29:41;3.05;;;0.40;;
70547;SDS011;58099;43.406;3.698;2022-11-20T05:32:06;4.90;;;0.53;;
70547;SDS011;58099;43.406;3.698;2022-11-20T05:34:34;4.40;;;0.40;;
70547;SDS011;58099;43.406;3.698;2022-11-20T05:37:01;4.15;;;0.60;;
70547;SDS011;58099;43.406;3.698;2022-11-20T05:39:27;5.00;;;0.50;;
70547;SDS011;58099;43.406;3.698;2022-11-20T05:41:53;3.17;;;0.40;;
70547;SDS011;58099;43.406;3.698;2022-11-20T05:44:37;2.92;;;0.40;;
70547;SDS011;58099;43.406;3.698;2022-11-20T05:47:03;3.23;;;0.50;;
70547;SDS011;58099;43.406;3.698;2022-11-20T05:49:29;2.75;;;0.30;;
70547;SDS011;58099;43.406;3.698;2022-11-20T05:51:54;3.17;;;0.40;;
70547;SDS011;58099;43.406;3.698;2022-11-20T05:54:20;2.63;;;0.40;;
70547;SDS011;58099;43.406;3.698;2022-11-20T05:56:45;7.03;;;0.50;;
70547;SDS011;58099;43.406;3.698;2022-11-20T05:59:11;4.47;;;0.50;;
70547;SDS011;58099;43.406;3.698;2022-11-20T06:01:37;3.10;;;0.40;;
70547;SDS011;58099;43.406;3.698;2022-11-20T06:04:02;3.93;;;0.57;;
70547;SDS011;58099;43.406;3.698;2022-11-20T06:06:28;4.30;;;0.40;;
70547;SDS011;58099;43.406;3.698;2022-11-20T06:08:54;3.63;;;0.57;;
70547;SDS011;58099;43.406;3.698;2022-11-20T06:11:20;3.05;;;0.40;;
70547;SDS011;58099;43.406;3.698;2022-11-20T06:13:46;4.53;;;0.40;;
70547;SDS011;58099;43.406;3.698;2022-11-20T06:16:14;4.60;;;0.50;;
70547;SDS011;58099;43.406;3.698;2022-11-20T06:18:41;6.05;;;0.40;;
70547;SDS011;58099;43.406;3.698;2022-11-20T06:21:10;4.15;;;0.50;;
70547;SDS011;58099;43.406;3.698;2022-11-20T06:23:40;3.92;;;0.50;;
70547;SDS011;58099;43.406;3.698;2022-11-20T06:26:07;3.43;;;0.40;;
70547;SDS011;58099;43.406;3.698;2022-11-20T06:28:35;3.92;;;0.40;;
70547;SDS011;58099;43.406;3.698;2022-11-20T06:31:01;5.82;;;0.77;;
70547;SDS011;58099;43.406;3.698;2022-11-20T06:33:27;4.28;;;0.40;;
70547;SDS011;58099;43.406;3.698;2022-11-20T06:35:57;5.35;;;0.90;;
70547;SDS011;58099;43.406;3.698;2022-11-20T06:38:24;4.70;;;0.60;;
70547;SDS011;58099;43.406;3.698;2022-11-20T06:40:50;4.50;;;0.60;;
70547;SDS011;58099;43.406;3.698;2022-11-20T06:43:16;4.80;;;0.50;;
70547;SDS011;58099;43.406;3.698;2022-11-20T06:45:42;2.87;;;0.23;;
70547;SDS011;58099;43.406;3.698;2022-11-20T06:48:08;5.43;;;0.43;;
70547;SDS011;58099;43.406;3.698;2022-11-20T06:50:35;3.90;;;0.50;;
70547;SDS011;58099;43.406;3.698;2022-11-20T06:53:02;5.53;;;0.40;;
70547;SDS011;58099;43.406;3.698;2022-11-20T06:55:28;4.35;;;0.43;;
70547;SDS011;58099;43.406;3.698;2022-11-20T06:57:55;5.15;;;0.65;;
70547;SDS011;58099;43.406;3.698;2022-11-20T07:00:20;3.90;;;0.30;;
70547;SDS011;58099;43.406;3.698;2022-11-20T07:02:46;5.72;;;0.60;;
70547;SDS011;58099;43.406;3.698;2022-11-20T07:05:12;5.67;;;0.57;;
70547;SDS011;58099;43.406;3.698;2022-11-20T07:07:38;3.13;;;0.40;;
70547;SDS011;58099;43.406;3.698;2022-11-20T07:10:03;3.97;;;0.60;;
70547;SDS011;58099;43.406;3.698;2022-11-20T07:12:30;5.65;;;0.75;;
70547;SDS011;58099;43.406;3.698;2022-11-20T07:14:55;3.35;;;0.40;;
70547;SDS011;58099;43.406;3.698;2022-11-20T07:17:21;4.23;;;0.50;;
70547;SDS011;58099;43.406;3.698;2022-11-20T07:19:47;4.75;;;0.40;;
70547;SDS011;58099;43.406;3.698;2022-11-20T07:22:12;3.97;;;0.60;;
70547;SDS011;58099;43.406;3.698;2022-11-20T07:24:38;3.08;;;0.50;;
70547;SDS011;58099;43.406;3.698;2022-11-20T07:27:04;4.05;;;0.50;;
70547;SDS011;58099;43.406;3.698;2022-11-20T07:29:30;5.25;;;0.70;;
70547;SDS011;58099;43.406;3.698;2022-11-20T07:31:56;4.43;;;0.60;;
70547;SDS011;58099;43.406;3.698;2022-11-20T07:34:22;4.75;;;0.57;;
70547;SDS011;58099;43.406;3.698;2022-11-20T07:36:48;3.58;;;0.40;;
70547;SDS011;58099;43.406;3.698;2022-11-20T07:39:13;5.67;;;0.80;;
70547;SDS011;58099;43.406;3.698;2022-11-20T07:41:39;4.53;;;0.50;;
70547;SDS011;58099;43.406;3.698;2022-11-20T07:44:05;4.97;;;0.60;;
70547;SDS011;58099;43.406;3.698;2022-11-20T07:46:31;3.83;;;0.63;;
70547;SDS011;58099;43.406;3.698;2022-11-20T07:48:56;3.37;;;0.60;;
70547;SDS011;58099;43.406;3.698;2022-11-20T07:51:22;4.60;;;0.68;;
70547;SDS011;58099;43.406;3.698;2022-11-20T07:53:50;3.90;;;0.97;;
70547;SDS011;58099;43.406;3.698;2022-11-20T07:56:17;3.72;;;0.50;;
70547;SDS011;58099;43.406;3.698;2022-11-20T07:58:42;4.93;;;0.60;;
70547;SDS011;58099;43.406;3.698;2022-11-20T08:01:08;4.65;;;0.70;;
70547;SDS011;58099;43.406;3.698;2022-11-20T08:03:34;5.13;;;1.00;;
70547;SDS011;58099;43.406;3.698;2022-11-20T08:06:02;4.05;;;0.50;;
70547;SDS011;58099;43.406;3.698;2022-11-20T08:08:29;6.40;;;0.60;;
70547;SDS011;58099;43.406;3.698;2022-11-20T08:10:56;4.97;;;0.50;;
70547;SDS011;58099;43.406;3.698;2022-11-20T08:13:41;3.53;;;0.50;;
70547;SDS011;58099;43.406;3.698;2022-11-20T08:16:25;3.97;;;0.50;;
70547;SDS011;58099;43.406;3.698;2022-11-20T08:18:51;5.23;;;0.60;;
70547;SDS011;58099;43.406;3.698;2022-11-20T08:21:17;3.55;;;0.60;;
70547;SDS011;58099;43.406;3.698;2022-11-20T08:23:42;4.83;;;0.60;;
70547;SDS011;58099;43.406;3.698;2022-11-20T08:26:08;3.85;;;0.60;;
70547;SDS011;58099;43.406;3.698;2022-11-20T08:28:34;6.93;;;0.55;;
70547;SDS011;58099;43.406;3.698;2022-11-20T08:30:59;3.50;;;0.60;;
70547;SDS011;58099;43.406;3.698;2022-11-20T08:33:25;5.13;;;0.73;;
70547;SDS011;58099;43.406;3.698;2022-11-20T08:35:51;4.13;;;0.47;;
70547;SDS011;58099;43.406;3.698;2022-11-20T08:38:17;3.17;;;0.60;;
70547;SDS011;58099;43.406;3.698;2022-11-20T08:40:43;4.85;;;0.70;;
70547;SDS011;58099;43.406;3.698;2022-11-20T08:43:28;4.00;;;0.60;;
70547;SDS011;58099;43.406;3.698;2022-11-20T08:45:56;4.20;;;0.60;;
70547;SDS011;58099;43.406;3.698;2022-11-20T08:48:21;4.68;;;0.70;;
70547;SDS011;58099;43.406;3.698;2022-11-20T08:50:47;3.80;;;0.50;;
70547;SDS011;58099;43.406;3.698;2022-11-20T08:53:13;4.07;;;0.60;;
70547;SDS011;58099;43.406;3.698;2022-11-20T08:55:38;4.43;;;0.60;;
70547;SDS011;58099;43.406;3.698;2022-11-20T08:58:05;4.90;;;0.60;;
70547;SDS011;58099;43.406;3.698;2022-11-20T09:00:32;4.35;;;0.60;;
70547;SDS011;58099;43.406;3.698;2022-11-20T09:02:58;4.55;;;0.68;;
70547;SDS011;58099;43.406;3.698;2022-11-20T09:05:25;5.93;;;0.70;;
70547;SDS011;58099;43.406;3.698;2022-11-20T09:07:52;4.55;;;0.50;;
70547;SDS011;58099;43.406;3.698;2022-11-20T09:10:21;4.57;;;0.60;;
70547;SDS011;58099;43.406;3.698;2022-11-20T09:12:48;4.35;;;0.70;;
70547;SDS011;58099;43.406;3.698;2022-11-20T09:15:14;4.10;;;0.70;;
70547;SDS011;58099;43.406;3.698;2022-11-20T09:17:40;3.27;;;0.57;;
70547;SDS011;58099;43.406;3.698;2022-11-20T09:20:05;5.90;;;1.05;;
70547;SDS011;58099;43.406;3.698;2022-11-20T09:22:31;3.80;;;0.60;;
70547;SDS011;58099;43.406;3.698;2022-11-20T09:24:57;3.17;;;0.60;;
70547;SDS011;58099;43.406;3.698;2022-11-20T09:27:23;5.20;;;0.50;;
70547;SDS011;58099;43.406;3.698;2022-11-20T09:29:49;4.45;;;0.68;;
70547;SDS011;58099;43.406;3.698;2022-11-20T09:32:14;6.20;;;0.80;;
70547;SDS011;58099;43.406;3.698;2022-11-20T09:34:40;4.43;;;0.80;;
70547;SDS011;58099;43.406;3.698;2022-11-20T09:37:06;5.43;;;0.50;;
70547;SDS011;58099;43.406;3.698;2022-11-20T09:39:32;4.20;;;0.50;;
70547;SDS011;58099;43.406;3.698;2022-11-20T09:45:01;3.60;;;0.50;;
70547;SDS011;58099;43.406;3.698;2022-11-20T09:55:43;5.15;;;0.60;;
70547;SDS011;58099;43.406;3.698;2022-11-20T09:58:24;3.72;;;0.50;;
70547;SDS011;58099;43.406;3.698;2022-11-20T10:01:00;4.60;;;0.85;;
70547;SDS011;58099;43.406;3.698;2022-11-20T10:06:39;3.60;;;0.60;;
70547;SDS011;58099;43.406;3.698;2022-11-20T10:09:20;3.80;;;0.70;;
70547;SDS011;58099;43.406;3.698;2022-11-20T10:11:56;3.72;;;0.60;;
70547;SDS011;58099;43.406;3.698;2022-11-20T10:17:08;5.27;;;0.63;;
70547;SDS011;58099;43.406;3.698;2022-11-20T10:23:12;3.60;;;0.65;;
70547;SDS011;58099;43.406;3.698;2022-11-20T10:31:34;3.15;;;0.50;;
70547;SDS011;58099;43.406;3.698;2022-11-20T10:34:12;4.22;;;0.40;;
70547;SDS011;58099;43.406;3.698;2022-11-20T10:37:11;3.67;;;0.60;;
70547;SDS011;58099;43.406;3.698;2022-11-20T10:42:31;5.18;;;0.60;;
70547;SDS011;58099;43.406;3.698;2022-11-20T10:45:02;3.53;;;0.50;;
70547;SDS011;58099;43.406;3.698;2022-11-20T10:47:41;2.65;;;0.45;;
70547;SDS011;58099;43.406;3.698;2022-11-20T10:50:09;3.37;;;0.60;;
70547;SDS011;58099;43.406;3.698;2022-11-20T10:55:33;4.88;;;0.50;;
70547;SDS011;58099;43.406;3.698;2022-11-20T11:01:03;3.77;;;0.50;;
70547;SDS011;58099;43.406;3.698;2022-11-20T11:03:30;3.97;;;0.47;;
70547;SDS011;58099;43.406;3.698;2022-11-20T11:08:28;5.22;;;0.30;;
70547;SDS011;58099;43.406;3.698;2022-11-20T11:11:02;3.53;;;0.60;;
70547;SDS011;58099;43.406;3.698;2022-11-20T11:13:35;3.17;;;0.50;;
70547;SDS011;58099;43.406;3.698;2022-11-20T11:16:01;3.35;;;0.40;;
70547;SDS011;58099;43.406;3.698;2022-11-20T11:18:32;4.88;;;0.60;;
70547;SDS011;58099;43.406;3.698;2022-11-20T11:21:00;3.67;;;0.50;;
70547;SDS011;58099;43.406;3.698;2022-11-20T11:26:07;3.85;;;0.50;;
70547;SDS011;58099;43.406;3.698;2022-11-20T11:29:00;2.47;;;0.40;;
70547;SDS011;58099;43.406;3.698;2022-11-20T11:31:29;4.18;;;0.40;;
70547;SDS011;58099;43.406;3.698;2022-11-20T11:34:06;3.20;;;0.50;;
70547;SDS011;58099;43.406;3.698;2022-11-20T11:36:33;4.38;;;0.40;;
70547;SDS011;58099;43.406;3.698;2022-11-20T11:39:00;3.10;;;0.40;;
70547;SDS011;58099;43.406;3.698;2022-11-20T11:41:28;3.65;;;0.47;;
70547;SDS011;58099;43.406;3.698;2022-11-20T11:44:43;3.17;;;0.43;;
70547;SDS011;58099;43.406;3.698;2022-11-20T11:47:23;2.60;;;0.43;;
70547;SDS011;58099;43.406;3.698;2022-11-20T11:52:56;4.95;;;0.80;;
70547;SDS011;58099;43.406;3.698;2022-11-20T11:55:44;4.13;;;0.52;;
70547;SDS011;58099;43.406;3.698;2022-11-20T12:01:20;3.07;;;0.53;;
70547;SDS011;58099;43.406;3.698;2022-11-20T12:04:04;3.40;;;0.50;;
70547;SDS011;58099;43.406;3.698;2022-11-20T12:06:32;3.53;;;0.60;;
70547;SDS011;58099;43.406;3.698;2022-11-20T12:09:03;2.90;;;0.57;;
70547;SDS011;58099;43.406;3.698;2022-11-20T12:11:33;2.67;;;0.60;;
70547;SDS011;58099;43.406;3.698;2022-11-20T12:14:13;3.73;;;0.60;;
70547;SDS011;58099;43.406;3.698;2022-11-20T12:17:01;3.65;;;0.50;;
70547;SDS011;58099;43.406;3.698;2022-11-20T12:19:28;2.90;;;0.80;;
70547;SDS011;58099;43.406;3.698;2022-11-20T12:31:14;2.90;;;0.50;;
70547;SDS011;58099;43.406;3.698;2022-11-20T12:34:08;3.13;;;0.70;;
70547;SDS011;58099;43.406;3.698;2022-11-20T12:39:35;2.90;;;0.50;;
70547;SDS011;58099;43.406;3.698;2022-11-20T13:01:02;3.67;;;0.50;;
70547;SDS011;58099;43.406;3.698;2022-11-20T13:06:49;3.40;;;0.50;;
70547;SDS011;58099;43.406;3.698;2022-11-20T13:09:16;2.50;;;0.40;;
70547;SDS011;58099;43.406;3.698;2022-11-20T13:12:03;2.72;;;0.47;;
70547;SDS011;58099;43.406;3.698;2022-11-20T13:14:40;2.85;;;0.47;;
70547;SDS011;58099;43.406;3.698;2022-11-20T13:20:01;3.13;;;0.40;;
70547;SDS011;58099;43.406;3.698;2022-11-20T13:22:41;3.20;;;0.60;;
70547;SDS011;58099;43.406;3.698;2022-11-20T13:25:10;3.08;;;0.50;;
70547;SDS011;58099;43.406;3.698;2022-11-20T13:27:53;3.00;;;0.60;;
70547;SDS011;58099;43.406;3.698;2022-11-20T13:30:29;2.33;;;0.50;;
70547;SDS011;58099;43.406;3.698;2022-11-20T13:32:57;2.50;;;0.30;;
70547;SDS011;58099;43.406;3.698;2022-11-20T13:35:36;3.10;;;0.40;;
70547;SDS011;58099;43.406;3.698;2022-11-20T13:38:12;2.63;;;0.30;;
70547;SDS011;58099;43.406;3.698;2022-11-20T13:46:08;2.90;;;0.47;;
70547;SDS011;58099;43.406;3.698;2022-11-20T13:48:39;3.20;;;0.40;;
70547;SDS011;58099;43.406;3.698;2022-11-20T13:51:12;3.63;;;0.30;;
70547;SDS011;58099;43.406;3.698;2022-11-20T13:53:56;3.10;;;0.47;;
70547;SDS011;58099;43.406;3.698;2022-11-20T14:01:48;2.80;;;0.30;;
70547;SDS011;58099;43.406;3.698;2022-11-20T14:04:15;2.50;;;0.40;;
70547;SDS011;58099;43.406;3.698;2022-11-20T14:06:46;3.63;;;0.40;;
70547;SDS011;58099;43.406;3.698;2022-11-20T14:09:31;2.83;;;0.30;;
70547;SDS011;58099;43.406;3.698;2022-11-20T14:11:58;3.07;;;0.30;;
70547;SDS011;58099;43.406;3.698;2022-11-20T14:14:25;3.28;;;0.30;;
70547;SDS011;58099;43.406;3.698;2022-11-20T14:16:52;2.05;;;0.30;;
70547;SDS011;58099;43.406;3.698;2022-11-20T14:19:30;2.03;;;0.30;;
70547;SDS011;58099;43.406;3.698;2022-11-20T14:27:38;2.70;;;0.52;;
70547;SDS011;58099;43.406;3.698;2022-11-20T14:30:12;4.57;;;0.55;;
70547;SDS011;58099;43.406;3.698;2022-11-20T14:32:42;3.08;;;0.40;;
70547;SDS011;58099;43.406;3.698;2022-11-20T14:35:10;3.42;;;0.38;;
70547;SDS011;58099;43.406;3.698;2022-11-20T14:37:44;3.43;;;0.30;;
70547;SDS011;58099;43.406;3.698;2022-11-20T14:42:54;2.50;;;0.38;;
70547;SDS011;58099;43.406;3.698;2022-11-20T14:45:20;2.92;;;0.30;;
70547;SDS011;58099;43.406;3.698;2022-11-20T14:47:47;2.70;;;0.40;;
70547;SDS011;58099;43.406;3.698;2022-11-20T14:50:16;3.37;;;0.53;;
70547;SDS011;58099;43.406;3.698;2022-11-20T14:52:52;2.53;;;0.35;;
70547;SDS011;58099;43.406;3.698;2022-11-20T14:55:26;1.90;;;0.30;;
70547;SDS011;58099;43.406;3.698;2022-11-20T14:57:54;2.30;;;0.30;;
70547;SDS011;58099;43.406;3.698;2022-11-20T15:00:21;2.85;;;0.30;;
70547;SDS011;58099;43.406;3.698;2022-11-20T15:02:48;3.13;;;0.40;;
70547;SDS011;58099;43.406;3.698;2022-11-20T15:05:16;2.65;;;0.50;;
70547;SDS011;58099;43.406;3.698;2022-11-20T15:07:45;2.50;;;0.43;;
70547;SDS011;58099;43.406;3.698;2022-11-20T15:12:56;3.30;;;0.40;;
70547;SDS011;58099;43.406;3.698;2022-11-20T15:15:33;3.23;;;0.30;;
70547;SDS011;58099;43.406;3.698;2022-11-20T15:18:19;2.20;;;0.30;;
70547;SDS011;58099;43.406;3.698;2022-11-20T15:20:48;2.72;;;0.40;;
70547;SDS011;58099;43.406;3.698;2022-11-20T15:23:15;2.63;;;0.40;;
70547;SDS011;58099;43.406;3.698;2022-11-20T15:25:43;4.00;;;0.23;;
70547;SDS011;58099;43.406;3.698;2022-11-20T15:28:16;3.03;;;0.30;;
70547;SDS011;58099;43.406;3.698;2022-11-20T15:30:49;2.38;;;0.30;;
70547;SDS011;58099;43.406;3.698;2022-11-20T15:33:16;3.45;;;0.30;;
70547;SDS011;58099;43.406;3.698;2022-11-20T15:35:42;2.72;;;0.30;;
70547;SDS011;58099;43.406;3.698;2022-11-20T15:38:08;3.10;;;0.40;;
70547;SDS011;58099;43.406;3.698;2022-11-20T15:40:34;2.35;;;0.30;;
70547;SDS011;58099;43.406;3.698;2022-11-20T15:43:00;2.13;;;0.32;;
70547;SDS011;58099;43.406;3.698;2022-11-20T15:48:09;3.38;;;0.30;;
70547;SDS011;58099;43.406;3.698;2022-11-20T15:50:41;2.67;;;0.30;;
70547;SDS011;58099;43.406;3.698;2022-11-20T15:53:19;3.30;;;0.40;;
70547;SDS011;58099;43.406;3.698;2022-11-20T15:55:45;2.05;;;0.20;;
70547;SDS011;58099;43.406;3.698;2022-11-20T15:58:11;2.77;;;0.40;;
70547;SDS011;58099;43.406;3.698;2022-11-20T16:00:36;2.28;;;0.45;;
70547;SDS011;58099;43.406;3.698;2022-11-20T16:03:02;3.50;;;0.60;;
70547;SDS011;58099;43.406;3.698;2022-11-20T16:05:28;2.47;;;0.40;;
70547;SDS011;58099;43.406;3.698;2022-11-20T16:07:54;2.50;;;0.30;;
70547;SDS011;58099;43.406;3.698;2022-11-20T16:10:20;2.92;;;0.20;;
70547;SDS011;58099;43.406;3.698;2022-11-20T16:12:46;2.90;;;0.40;;
70547;SDS011;58099;43.406;3.698;2022-11-20T16:15:30;2.40;;;0.40;;
70547;SDS011;58099;43.406;3.698;2022-11-20T16:18:14;2.50;;;0.30;;
70547;SDS011;58099;43.406;3.698;2022-11-20T16:20:51;2.40;;;0.30;;
70547;SDS011;58099;43.406;3.698;2022-11-20T16:23:18;2.28;;;0.30;;
70547;SDS011;58099;43.406;3.698;2022-11-20T16:25:45;3.63;;;0.40;;
70547;SDS011;58099;43.406;3.698;2022-11-20T16:28:11;2.85;;;0.47;;
70547;SDS011;58099;43.406;3.698;2022-11-20T16:30:38;3.53;;;0.40;;
70547;SDS011;58099;43.406;3.698;2022-11-20T16:33:08;3.08;;;0.40;;
70547;SDS011;58099;43.406;3.698;2022-11-20T16:35:36;2.80;;;0.50;;
70547;SDS011;58099;43.406;3.698;2022-11-20T16:38:02;3.88;;;0.30;;
70547;SDS011;58099;43.406;3.698;2022-11-20T16:40:27;4.13;;;0.30;;
70547;SDS011;58099;43.406;3.698;2022-11-20T16:42:53;3.22;;;0.40;;
70547;SDS011;58099;43.406;3.698;2022-11-20T16:45:19;4.13;;;0.40;;
70547;SDS011;58099;43.406;3.698;2022-11-20T16:47:45;2.60;;;0.30;;
70547;SDS011;58099;43.406;3.698;2022-11-20T16:50:11;2.40;;;0.20;;
70547;SDS011;58099;43.406;3.698;2022-11-20T16:52:36;2.88;;;0.30;;
70547;SDS011;58099;43.406;3.698;2022-11-20T16:55:02;2.67;;;0.40;;
70547;SDS011;58099;43.406;3.698;2022-11-20T16:57:28;2.67;;;0.32;;
70547;SDS011;58099;43.406;3.698;2022-11-20T16:59:56;4.25;;;0.50;;
70547;SDS011;58099;43.406;3.698;2022-11-20T17:02:22;3.28;;;0.38;;
70547;SDS011;58099;43.406;3.698;2022-11-20T17:04:48;4.13;;;0.33;;
70547;SDS011;58099;43.406;3.698;2022-11-20T17:07:14;3.17;;;0.40;;
70547;SDS011;58099;43.406;3.698;2022-11-20T17:09:39;3.37;;;0.30;;
70547;SDS011;58099;43.406;3.698;2022-11-20T17:12:05;2.28;;;0.30;;
70547;SDS011;58099;43.406;3.698;2022-11-20T17:14:31;3.45;;;0.40;;
70547;SDS011;58099;43.406;3.698;2022-11-20T17:16:57;2.72;;;0.40;;
70547;SDS011;58099;43.406;3.698;2022-11-20T17:19:22;2.73;;;0.30;;
70547;SDS011;58099;43.406;3.698;2022-11-20T17:21:48;2.80;;;0.40;;
70547;SDS011;58099;43.406;3.698;2022-11-20T17:24:14;4.03;;;0.43;;
70547;SDS011;58099;43.406;3.698;2022-11-20T17:26:43;2.78;;;0.40;;
70547;SDS011;58099;43.406;3.698;2022-11-20T17:29:10;3.10;;;0.60;;
70547;SDS011;58099;43.406;3.698;2022-11-20T17:31:41;2.63;;;0.30;;
70547;SDS011;58099;43.406;3.698;2022-11-20T17:34:08;2.50;;;0.30;;
70547;SDS011;58099;43.406;3.698;2022-11-20T17:36:36;3.13;;;0.43;;
70547;SDS011;58099;43.406;3.698;2022-11-20T17:39:04;2.50;;;0.30;;
70547;SDS011;58099;43.406;3.698;2022-11-20T17:41:30;3.07;;;0.40;;
70547;SDS011;58099;43.406;3.698;2022-11-20T17:43:56;2.42;;;0.32;;
70547;SDS011;58099;43.406;3.698;2022-11-20T17:46:24;4.43;;;0.40;;
70547;SDS011;58099;43.406;3.698;2022-11-20T17:48:51;3.33;;;0.50;;
70547;SDS011;58099;43.406;3.698;2022-11-20T17:51:18;3.85;;;0.40;;
70547;SDS011;58099;43.406;3.698;2022-11-20T17:53:46;3.22;;;0.40;;
70547;SDS011;58099;43.406;3.698;2022-11-20T17:56:14;3.10;;;0.40;;
70547;SDS011;58099;43.406;3.698;2022-11-20T17:58:59;2.83;;;0.30;;
70547;SDS011;58099;43.406;3.698;2022-11-20T18:01:27;4.45;;;0.50;;
70547;SDS011;58099;43.406;3.698;2022-11-20T18:03:54;2.67;;;0.30;;
70547;SDS011;58099;43.406;3.698;2022-11-20T18:06:22;2.83;;;0.30;;
70547;SDS011;58099;43.406;3.698;2022-11-20T18:08:49;3.03;;;0.50;;
70547;SDS011;58099;43.406;3.698;2022-11-20T18:13:49;3.58;;;0.57;;
70547;SDS011;58099;43.406;3.698;2022-11-20T18:16:36;3.40;;;0.30;;
70547;SDS011;58099;43.406;3.698;2022-11-20T18:19:03;2.47;;;0.30;;
70547;SDS011;58099;43.406;3.698;2022-11-20T18:21:29;3.42;;;0.60;;
70547;SDS011;58099;43.406;3.698;2022-11-20T18:23:56;2.63;;;0.30;;
70547;SDS011;58099;43.406;3.698;2022-11-20T18:26:22;3.50;;;0.35;;
70547;SDS011;58099;43.406;3.698;2022-11-20T18:28:49;3.08;;;0.30;;
70547;SDS011;58099;43.406;3.698;2022-11-20T18:31:15;2.33;;;0.30;;
70547;SDS011;58099;43.406;3.698;2022-11-20T18:33:41;3.05;;;0.32;;
70547;SDS011;58099;43.406;3.698;2022-11-20T18:36:08;2.90;;;0.30;;
70547;SDS011;58099;43.406;3.698;2022-11-20T18:38:41;2.40;;;0.30;;
70547;SDS011;58099;43.406;3.698;2022-11-20T18:41:09;2.90;;;0.30;;
70547;SDS011;58099;43.406;3.698;2022-11-20T18:44:01;2.63;;;0.30;;
70547;SDS011;58099;43.406;3.698;2022-11-20T18:46:47;3.03;;;0.40;;
70547;SDS011;58099;43.406;3.698;2022-11-20T18:49:13;4.00;;;0.50;;
70547;SDS011;58099;43.406;3.698;2022-11-20T18:51:39;3.70;;;0.40;;
70547;SDS011;58099;43.406;3.698;2022-11-20T18:54:08;2.58;;;0.30;;
70547;SDS011;58099;43.406;3.698;2022-11-20T18:56:34;2.73;;;0.23;;
70547;SDS011;58099;43.406;3.698;2022-11-20T18:59:01;2.75;;;0.43;;
70547;SDS011;58099;43.406;3.698;2022-11-20T19:01:27;3.10;;;0.30;;
70547;SDS011;58099;43.406;3.698;2022-11-20T19:03:53;2.90;;;0.47;;
70547;SDS011;58099;43.406;3.698;2022-11-20T19:06:19;3.97;;;0.80;;
70547;SDS011;58099;43.406;3.698;2022-11-20T19:08:45;3.97;;;1.05;;
70547;SDS011;58099;43.406;3.698;2022-11-20T19:11:11;4.07;;;0.80;;
70547;SDS011;58099;43.406;3.698;2022-11-20T19:13:37;3.80;;;0.50;;
70547;SDS011;58099;43.406;3.698;2022-11-20T19:16:05;2.90;;;0.57;;
70547;SDS011;58099;43.406;3.698;2022-11-20T19:18:32;3.20;;;0.47;;
70547;SDS011;58099;43.406;3.698;2022-11-20T19:21:05;3.72;;;0.57;;
70547;SDS011;58099;43.406;3.698;2022-11-20T19:23:35;4.07;;;0.90;;
70547;SDS011;58099;43.406;3.698;2022-11-20T19:26:01;3.80;;;0.80;;
70547;SDS011;58099;43.406;3.698;2022-11-20T19:28:34;3.20;;;0.63;;
70547;SDS011;58099;43.406;3.698;2022-11-20T19:33:33;4.68;;;0.90;;
70547;SDS011;58099;43.406;3.698;2022-11-20T19:38:37;3.80;;;0.90;;
70547;SDS011;58099;43.406;3.698;2022-11-20T19:41:04;4.13;;;0.90;;
70547;SDS011;58099;43.406;3.698;2022-11-20T19:43:31;3.97;;;0.75;;
70547;SDS011;58099;43.406;3.698;2022-11-20T19:45:57;4.20;;;1.20;;
70547;SDS011;58099;43.406;3.698;2022-11-20T19:48:23;5.05;;;1.05;;
70547;SDS011;58099;43.406;3.698;2022-11-20T19:50:49;4.97;;;1.03;;
70547;SDS011;58099;43.406;3.698;2022-11-20T19:53:15;4.57;;;0.88;;
70547;SDS011;58099;43.406;3.698;2022-11-20T19:55:42;3.38;;;0.98;;
70547;SDS011;58099;43.406;3.698;2022-11-20T19:58:22;4.57;;;0.93;;
70547;SDS011;58099;43.406;3.698;2022-11-20T20:00:48;3.70;;;0.57;;
70547;SDS011;58099;43.406;3.698;2022-11-20T20:03:15;4.28;;;0.80;;
70547;SDS011;58099;43.406;3.698;2022-11-20T20:05:40;4.78;;;0.75;;
70547;SDS011;58099;43.406;3.698;2022-11-20T20:08:06;3.30;;;0.67;;
70547;SDS011;58099;43.406;3.698;2022-11-20T20:10:32;3.47;;;0.77;;
70547;SDS011;58099;43.406;3.698;2022-11-20T20:12:57;4.40;;;0.98;;
70547;SDS011;58099;43.406;3.698;2022-11-20T20:15:23;5.30;;;0.80;;
70547;SDS011;58099;43.406;3.698;2022-11-20T20:17:52;3.72;;;0.80;;
70547;SDS011;58099;43.406;3.698;2022-11-20T20:20:18;4.10;;;0.80;;
70547;SDS011;58099;43.406;3.698;2022-11-20T20:22:44;2.63;;;0.40;;
70547;SDS011;58099;43.406;3.698;2022-11-20T20:25:10;3.03;;;0.60;;
70547;SDS011;58099;43.406;3.698;2022-11-20T20:27:36;3.95;;;0.50;;
70547;SDS011;58099;43.406;3.698;2022-11-20T20:30:05;3.10;;;0.60;;
70547;SDS011;58099;43.406;3.698;2022-11-20T20:32:32;3.35;;;0.50;;
70547;SDS011;58099;43.406;3.698;2022-11-20T20:34:58;5.32;;;0.50;;
70547;SDS011;58099;43.406;3.698;2022-11-20T20:37:23;3.70;;;0.40;;
70547;SDS011;58099;43.406;3.698;2022-11-20T20:39:50;3.78;;;0.40;;